createdAt,value
2023-03-28T00:01:17.903Z,-0.26
2023-03-28T00:03:45.965Z,-0.39
2023-03-28T00:06:16.305Z,-0.39
2023-03-28T00:08:45.874Z,-0.37
2023-03-28T00:11:18.925Z,-0.19
2023-03-28T00:13:47.784Z,-0.15
2023-03-28T00:16:17.272Z,-0.03
2023-03-28T00:18:44.910Z,0.07
2023-03-28T00:21:24.711Z,0.13
2023-03-28T00:23:53.852Z,0.27
2023-03-28T00:26:24.543Z,0.38
2023-03-28T00:28:52.822Z,0.51
2023-03-28T00:31:22.862Z,0.44
2023-03-28T00:33:50.526Z,0.45
2023-03-28T00:36:23.166Z,0.21
2023-03-28T00:38:52.118Z,0.16
2023-03-28T00:41:21.802Z,0.12
2023-03-28T00:43:51.565Z,0.14
2023-03-28T00:46:26.323Z,-0.04
2023-03-28T00:49:00.436Z,-0.08
2023-03-28T00:51:32.792Z,-0.02
2023-03-28T00:54:02.354Z,0.01
2023-03-28T00:56:33.492Z,-0.08
2023-03-28T00:59:06.574Z,-0.05
2023-03-28T01:01:36.881Z,-0.13
2023-03-28T01:04:10.015Z,-0.18
2023-03-28T01:06:42.861Z,-0.22
2023-03-28T01:09:14.855Z,-0.30
2023-03-28T01:11:49.049Z,-0.49
2023-03-28T01:14:22.535Z,-0.29
2023-03-28T01:16:56.506Z,-0.34
2023-03-28T01:19:42.688Z,-0.24
2023-03-28T01:22:56.654Z,-0.28
2023-03-28T01:25:48.543Z,-0.31
2023-03-28T01:28:29.995Z,-0.17
2023-03-28T01:31:14.509Z,-0.12
2023-03-28T01:34:42.871Z,-0.18
2023-03-28T01:37:31.625Z,-0.70
2023-03-28T01:40:12.109Z,-0.58
2023-03-28T01:42:54.257Z,-0.64
2023-03-28T01:45:29.583Z,-0.73
2023-03-28T01:48:06.325Z,-0.71
2023-03-28T01:50:41.735Z,-0.68
2023-03-28T01:53:17.299Z,-0.74
2023-03-28T01:55:53.993Z,-0.67
2023-03-28T01:58:29.880Z,-0.68
2023-03-28T02:01:08.008Z,-0.67
2023-03-28T02:03:39.904Z,-0.72
2023-03-28T02:06:22.787Z,-0.84
2023-03-28T02:08:55.011Z,-0.72
2023-03-28T02:11:30.206Z,-0.76
2023-03-28T02:14:16.903Z,-0.95
2023-03-28T02:17:21.976Z,-1.00
2023-03-28T02:20:14.721Z,-0.96
2023-03-28T02:23:17.623Z,-0.77
2023-03-28T02:26:12.587Z,-0.83
2023-03-28T02:28:59.292Z,-0.66
2023-03-28T02:31:46.244Z,-0.79
2023-03-28T02:34:14.066Z,-0.76
2023-03-28T02:36:51.455Z,-0.76
2023-03-28T02:39:39.008Z,-0.78
2023-03-28T02:42:29.515Z,-0.82
2023-03-28T02:45:15.213Z,-0.84
2023-03-28T02:47:58.028Z,-0.82
2023-03-28T02:50:37.192Z,-0.84
2023-03-28T02:53:12.353Z,-0.81
2023-03-28T02:55:49.133Z,-0.87
2023-03-28T02:58:42.044Z,-0.96
2023-03-28T03:01:14.513Z,-0.99
2023-03-28T03:03:43.890Z,-0.94
2023-03-28T03:06:12.500Z,-1.02
2023-03-28T03:08:40.615Z,-0.94
2023-03-28T03:11:08.347Z,-0.92
2023-03-28T03:13:37.720Z,-0.98
2023-03-28T03:16:06.277Z,-1.10
2023-03-28T03:18:34.965Z,-0.80
2023-03-28T03:21:03.063Z,-0.89
2023-03-28T03:23:31.105Z,-0.87
2023-03-28T03:26:00.651Z,-0.86
2023-03-28T03:28:41.218Z,-0.96
2023-03-28T03:31:09.594Z,-0.86
2023-03-28T03:33:56.322Z,-0.96
2023-03-28T03:36:30.388Z,-0.94
2023-03-28T03:39:00.227Z,-0.89
2023-03-28T03:41:28.145Z,-1.04
2023-03-28T03:43:57.225Z,-0.97
2023-03-28T03:46:24.918Z,-1.11
2023-03-28T03:48:53.854Z,-1.13
2023-03-28T03:51:21.513Z,-1.12
2023-03-28T03:53:53.422Z,-1.24
2023-03-28T03:56:26.208Z,-1.19
2023-03-28T03:58:59.791Z,-1.20
2023-03-28T04:01:30.906Z,-1.38
2023-03-28T04:04:19.233Z,-1.27
2023-03-28T04:07:05.748Z,-1.32
2023-03-28T04:09:35.608Z,-1.36
2023-03-28T04:12:05.180Z,-1.27
2023-03-28T04:14:43.455Z,-1.28
2023-03-28T04:17:37.804Z,-1.59
2023-03-28T04:20:13.876Z,-1.44
2023-03-28T04:23:01.123Z,-1.32
2023-03-28T04:25:31.598Z,-1.41
2023-03-28T04:28:05.651Z,-1.49
2023-03-28T04:30:58.131Z,-1.48
2023-03-28T04:33:30.369Z,-1.63
2023-03-28T04:36:02.297Z,-1.69
2023-03-28T04:38:32.437Z,-1.70
2023-03-28T04:41:16.818Z,-1.68
2023-03-28T04:44:10.461Z,-1.40
2023-03-28T04:46:49.203Z,-1.52
2023-03-28T04:49:17.847Z,-1.44
2023-03-28T04:51:46.247Z,-1.35
2023-03-28T04:54:13.930Z,-1.32
2023-03-28T04:56:49.439Z,-1.35
2023-03-28T04:59:24.237Z,-1.39
2023-03-28T05:01:54.218Z,-1.50
2023-03-28T05:04:37.430Z,-1.48
2023-03-28T05:07:07.487Z,-1.58
2023-03-28T05:09:35.971Z,-1.56
2023-03-28T05:12:03.905Z,-1.83
2023-03-28T05:14:34.694Z,-1.83
2023-03-28T05:17:13.525Z,-1.75
2023-03-28T05:19:57.864Z,-1.65
2023-03-28T05:22:28.145Z,-1.51
2023-03-28T05:24:59.616Z,-1.41
2023-03-28T05:27:27.430Z,-1.54
2023-03-28T05:29:55.876Z,-1.52
2023-03-28T05:32:26.360Z,-1.42
2023-03-28T05:34:55.821Z,-1.35
2023-03-28T05:37:28.528Z,-1.03
2023-03-28T05:39:56.330Z,-0.94
2023-03-28T05:42:24.118Z,-0.72
2023-03-28T05:44:52.018Z,-0.66
2023-03-28T05:47:56.961Z,-0.42
2023-03-28T05:50:26.302Z,-0.36
2023-03-28T05:52:59.786Z,-0.28
2023-03-28T05:55:27.636Z,-0.39
2023-03-28T05:57:55.946Z,-0.45
2023-03-28T06:00:27.004Z,-0.71
2023-03-28T06:02:56.472Z,-0.67
2023-03-28T06:05:32.618Z,-0.86
2023-03-28T06:08:01.733Z,-0.92
2023-03-28T06:10:30.840Z,-0.84
2023-03-28T06:13:13.468Z,-0.77
2023-03-28T06:15:42.667Z,-0.81
2023-03-28T06:18:12.120Z,-0.79
2023-03-28T06:20:45.565Z,-0.38
2023-03-28T06:23:13.436Z,-0.24
2023-03-28T06:25:42.009Z,-0.23
2023-03-28T06:28:10.168Z,0.09
2023-03-28T06:30:58.032Z,0.16
2023-03-28T06:33:27.956Z,0.22
2023-03-28T06:35:56.069Z,0.50
2023-03-28T06:38:25.035Z,0.57
2023-03-28T06:40:53.706Z,0.44
2023-03-28T06:43:21.455Z,0.72
2023-03-28T06:46:07.392Z,0.60
2023-03-28T06:48:37.863Z,0.82
2023-03-28T06:51:26.257Z,0.84
2023-03-28T06:53:54.338Z,0.96
2023-03-28T06:56:26.134Z,1.23
2023-03-28T06:58:56.439Z,1.25
2023-03-28T07:01:27.219Z,1.47
2023-03-28T07:04:08.880Z,1.32
2023-03-28T07:06:37.646Z,1.53
2023-03-28T07:09:06.805Z,1.48
2023-03-28T07:11:54.846Z,1.48
2023-03-28T07:14:23.859Z,1.68
2023-03-28T07:16:51.736Z,1.83
2023-03-28T07:19:20.884Z,1.72
2023-03-28T07:21:49.395Z,1.95
2023-03-28T07:24:17.128Z,1.86
2023-03-28T07:27:12.367Z,1.87
2023-03-28T07:29:42.981Z,1.56
2023-03-28T07:32:11.154Z,1.77
2023-03-28T07:34:40.219Z,1.45
2023-03-28T07:37:10.771Z,1.53
2023-03-28T07:40:10.949Z,1.63
2023-03-28T07:42:40.926Z,2.06
2023-03-28T07:45:10.264Z,2.27
2023-03-28T07:47:37.916Z,2.24
2023-03-28T07:50:08.457Z,2.42
2023-03-28T07:52:36.098Z,2.17
2023-03-28T07:55:04.009Z,2.50
2023-03-28T07:57:36.821Z,2.70
2023-03-28T08:00:17.375Z,2.84
2023-03-28T08:03:00.930Z,3.30
2023-03-28T08:05:34.064Z,3.57
2023-03-28T08:08:03.596Z,3.74
2023-03-28T08:10:31.552Z,3.52
2023-03-28T08:12:59.510Z,3.77
2023-03-28T08:15:27.461Z,3.46
2023-03-28T08:17:55.431Z,3.69
2023-03-28T08:20:23.329Z,3.62
2023-03-28T08:23:15.514Z,3.69
2023-03-28T08:26:06.353Z,3.64
2023-03-28T08:28:36.234Z,3.68
2023-03-28T08:31:14.187Z,3.26
2023-03-28T08:33:44.184Z,3.10
2023-03-28T08:36:14.908Z,3.50
2023-03-28T08:38:47.084Z,3.58
2023-03-28T08:41:30.774Z,3.69
2023-03-28T08:44:18.762Z,3.53
2023-03-28T08:46:49.607Z,3.21
2023-03-28T08:49:19.612Z,3.33
2023-03-28T08:51:52.836Z,3.55
2023-03-28T08:54:25.837Z,3.32
2023-03-28T08:56:55.663Z,3.34
2023-03-28T08:59:30.406Z,3.42
2023-03-28T09:01:58.388Z,3.76
2023-03-28T09:04:29.236Z,4.34
2023-03-28T09:07:24.167Z,4.14
2023-03-28T09:10:04.747Z,4.07
2023-03-28T09:12:53.281Z,4.78
2023-03-28T09:15:36.070Z,4.67
2023-03-28T09:18:19.223Z,5.17
2023-03-28T09:20:53.515Z,5.20
2023-03-28T09:23:58.946Z,4.72
2023-03-28T09:27:02.865Z,4.89
2023-03-28T09:29:36.386Z,5.08
2023-03-28T09:32:12.385Z,4.48
2023-03-28T09:34:48.968Z,4.34
2023-03-28T09:37:28.510Z,4.02
2023-03-28T09:39:58.751Z,4.12
2023-03-28T09:42:44.785Z,4.76
2023-03-28T09:45:40.531Z,5.02
2023-03-28T09:48:29.746Z,4.71
2023-03-28T09:51:01.817Z,4.85
2023-03-28T09:53:33.146Z,5.18
2023-03-28T09:56:04.986Z,5.97
2023-03-28T09:58:52.713Z,6.67
2023-03-28T10:01:45.517Z,6.20
2023-03-28T10:04:37.200Z,5.92
2023-03-28T10:07:29.904Z,6.68
2023-03-28T10:10:18.365Z,6.48
2023-03-28T10:12:49.726Z,5.76
2023-03-28T10:15:34.452Z,5.52
2023-03-28T10:18:22.835Z,5.63
2023-03-28T10:21:11.667Z,5.49
2023-03-28T10:23:44.036Z,5.53
2023-03-28T10:26:13.892Z,5.51
2023-03-28T10:28:44.252Z,6.25
2023-03-28T10:31:29.074Z,7.79
2023-03-28T10:34:25.707Z,7.30
2023-03-28T10:37:26.215Z,6.26
2023-03-28T10:40:26.294Z,6.76
2023-03-28T10:43:14.457Z,7.37
2023-03-28T10:46:03.482Z,8.16
2023-03-28T10:48:58.385Z,9.08
2023-03-28T10:51:29.297Z,9.62
2023-03-28T10:54:10.510Z,9.52
2023-03-28T10:56:43.102Z,8.99
2023-03-28T10:59:26.017Z,8.87
2023-03-28T11:02:11.391Z,9.27
2023-03-28T11:04:56.266Z,9.61
2023-03-28T11:07:33.804Z,9.22
2023-03-28T11:10:24.504Z,7.05
2023-03-28T11:13:29.992Z,7.32
2023-03-28T11:16:03.024Z,7.16
2023-03-28T11:18:53.594Z,7.55
2023-03-28T11:21:34.131Z,8.67
2023-03-28T11:24:14.964Z,10.38
2023-03-28T11:27:14.971Z,11.27
2023-03-28T11:30:10.904Z,11.72
2023-03-28T11:32:51.802Z,11.38
2023-03-28T11:35:27.422Z,10.01
2023-03-28T11:38:04.443Z,9.33
2023-03-28T11:40:38.350Z,10.03
2023-03-28T11:43:14.687Z,9.65
2023-03-28T11:45:51.932Z,9.45
2023-03-28T11:48:27.783Z,9.37
2023-03-28T11:51:03.658Z,9.89
2023-03-28T11:53:55.301Z,9.60
2023-03-28T11:56:37.079Z,9.90
2023-03-28T11:59:22.849Z,10.73
2023-03-28T12:01:57.838Z,9.74
2023-03-28T12:04:31.548Z,10.10
2023-03-28T12:07:11.199Z,9.40
2023-03-28T12:09:58.111Z,9.11
2023-03-28T12:12:31.787Z,9.09
2023-03-28T12:15:05.748Z,9.32
2023-03-28T12:17:53.753Z,9.70
2023-03-28T12:20:31.849Z,10.08
2023-03-28T12:23:11.836Z,10.14
2023-03-28T12:26:23.978Z,10.42
2023-03-28T12:28:56.950Z,10.10
2023-03-28T12:31:29.403Z,10.58
2023-03-28T12:34:13.104Z,10.70
2023-03-28T12:37:06.242Z,10.70
2023-03-28T12:39:43.744Z,10.31
2023-03-28T12:42:24.426Z,10.01
2023-03-28T12:44:56.809Z,9.28
2023-03-28T12:47:29.369Z,10.28
2023-03-28T12:50:02.813Z,10.34
2023-03-28T12:52:33.578Z,10.05
2023-03-28T12:55:07.414Z,9.98
2023-03-28T12:57:46.659Z,10.36
2023-03-28T13:00:28.333Z,10.66
2023-03-28T13:03:36.959Z,10.63
2023-03-28T13:06:14.183Z,11.28
2023-03-28T13:09:00.119Z,11.21
2023-03-28T13:11:38.502Z,10.84
2023-03-28T13:14:27.372Z,10.53
2023-03-28T13:16:58.545Z,11.23
2023-03-28T13:19:39.609Z,11.29
2023-03-28T13:22:29.677Z,11.02
2023-03-28T13:25:23.005Z,11.22
2023-03-28T13:27:52.934Z,9.68
2023-03-28T13:30:26.165Z,9.14
2023-03-28T13:32:55.708Z,9.38
2023-03-28T13:35:39.213Z,9.64
2023-03-28T13:38:25.198Z,9.85
2023-03-28T13:40:55.868Z,10.09
2023-03-28T13:43:26.068Z,10.30
2023-03-28T13:45:59.031Z,10.07
2023-03-28T13:48:33.132Z,10.79
2023-03-28T13:51:06.776Z,11.04
2023-03-28T13:53:46.807Z,10.02
2023-03-28T13:56:23.895Z,10.23
2023-03-28T13:58:53.583Z,11.20
2023-03-28T14:01:25.814Z,11.67
2023-03-28T14:03:54.990Z,12.07
2023-03-28T14:06:24.564Z,12.53
2023-03-28T14:08:54.261Z,12.71
2023-03-28T14:11:24.994Z,11.80
2023-03-28T14:14:00.581Z,11.92
2023-03-28T14:16:29.739Z,11.89
2023-03-28T14:18:57.905Z,11.88
2023-03-28T14:21:26.510Z,11.09
2023-03-28T14:23:59.559Z,11.35
2023-03-28T14:26:30.884Z,10.62
2023-03-28T14:29:03.900Z,11.44
2023-03-28T14:31:35.248Z,11.36
2023-03-28T14:34:16.144Z,11.38
2023-03-28T14:36:59.394Z,10.71
2023-03-28T14:39:28.136Z,10.66
2023-03-28T14:41:57.435Z,11.31
2023-03-28T14:44:25.702Z,11.83
2023-03-28T14:46:58.376Z,11.98
2023-03-28T14:49:27.214Z,11.22
2023-03-28T14:51:57.542Z,11.47
2023-03-28T14:54:29.531Z,11.35
2023-03-28T14:56:58.993Z,11.92
2023-03-28T14:59:34.619Z,12.15
2023-03-28T15:02:06.312Z,12.00
2023-03-28T15:04:35.851Z,11.92
2023-03-28T15:07:04.742Z,12.31
2023-03-28T15:09:34.432Z,12.49
2023-03-28T15:12:06.647Z,12.56
2023-03-28T15:14:41.114Z,11.94
2023-03-28T15:17:18.988Z,11.72
2023-03-28T15:19:48.542Z,11.31
2023-03-28T15:22:23.736Z,11.51
2023-03-28T15:24:51.804Z,10.99
2023-03-28T15:27:27.072Z,11.30
2023-03-28T15:29:55.809Z,11.23
2023-03-28T15:32:27.913Z,11.08
2023-03-28T15:35:00.700Z,11.31
2023-03-28T15:37:28.904Z,11.55
2023-03-28T15:40:22.840Z,12.01
2023-03-28T15:42:51.861Z,12.66
2023-03-28T15:45:40.959Z,13.12
2023-03-28T15:48:17.564Z,13.21
2023-03-28T15:50:51.027Z,14.23
2023-03-28T15:53:19.259Z,14.89
2023-03-28T15:55:49.099Z,14.99
2023-03-28T15:58:19.894Z,15.62
2023-03-28T16:00:50.240Z,14.47
2023-03-28T16:03:34.632Z,13.89
2023-03-28T16:06:31.658Z,13.24
2023-03-28T16:09:15.757Z,12.97
2023-03-28T16:11:44.939Z,12.71
2023-03-28T16:14:31.158Z,12.46
2023-03-28T16:17:17.647Z,12.44
2023-03-28T16:20:01.115Z,12.36
2023-03-28T16:22:30.222Z,12.36
2023-03-28T16:24:57.826Z,12.68
2023-03-28T16:27:25.992Z,12.65
2023-03-28T16:29:53.610Z,12.66
2023-03-28T16:32:23.755Z,12.93
2023-03-28T16:34:51.669Z,13.61
2023-03-28T16:37:21.787Z,14.50
2023-03-28T16:39:49.538Z,15.22
2023-03-28T16:42:18.202Z,15.67
2023-03-28T16:44:45.809Z,16.45
2023-03-28T16:47:13.677Z,16.84
2023-03-28T16:49:41.841Z,16.94
2023-03-28T16:52:09.601Z,16.91
2023-03-28T16:54:38.678Z,16.48
2023-03-28T16:57:06.497Z,16.34
2023-03-28T16:59:34.092Z,16.45
2023-03-28T17:02:02.115Z,16.60
2023-03-28T17:04:30.093Z,16.28
2023-03-28T17:06:58.083Z,15.99
2023-03-28T17:09:26.419Z,15.72
2023-03-28T17:11:55.468Z,15.36
2023-03-28T17:14:23.476Z,14.89
2023-03-28T17:16:51.707Z,14.36
2023-03-28T17:19:24.050Z,13.90
2023-03-28T17:21:51.779Z,13.53
2023-03-28T17:24:21.497Z,13.10
2023-03-28T17:26:49.143Z,12.68
2023-03-28T17:29:18.539Z,12.27
2023-03-28T17:31:46.498Z,11.83
2023-03-28T17:34:14.292Z,11.41
2023-03-28T17:36:42.109Z,11.03
2023-03-28T17:39:12.013Z,10.79
2023-03-28T17:41:39.716Z,10.50
2023-03-28T17:44:08.975Z,10.14
2023-03-28T17:46:38.660Z,9.84
2023-03-28T17:49:08.166Z,9.60
2023-03-28T17:51:35.865Z,9.36
2023-03-28T17:54:04.400Z,9.19
2023-03-28T17:56:32.185Z,9.06
2023-03-28T17:59:00.338Z,8.96
2023-03-28T18:01:28.019Z,8.86
2023-03-28T18:03:57.084Z,8.72
2023-03-28T18:07:03.236Z,8.55
2023-03-28T18:09:44.425Z,8.35
2023-03-28T18:12:12.695Z,8.19
2023-03-28T18:14:40.546Z,8.05
2023-03-28T18:17:08.456Z,8.01
2023-03-28T18:19:37.606Z,7.94
2023-03-28T18:22:05.623Z,7.88
2023-03-28T18:24:34.174Z,7.83
2023-03-28T18:27:01.989Z,7.74
2023-03-28T18:29:31.004Z,7.65
2023-03-28T18:31:58.780Z,7.53
2023-03-28T18:34:26.994Z,7.40
2023-03-28T18:36:56.284Z,7.31
2023-03-28T18:39:24.317Z,7.22
2023-03-28T18:41:52.096Z,7.13
2023-03-28T18:44:19.955Z,7.08
2023-03-28T18:46:54.602Z,7.02
2023-03-28T18:49:22.813Z,6.94
2023-03-28T18:51:50.504Z,6.81
2023-03-28T18:54:20.094Z,6.68
2023-03-28T18:56:48.276Z,6.62
2023-03-28T18:59:16.166Z,6.59
2023-03-28T19:01:50.847Z,6.51
2023-03-28T19:04:18.616Z,6.42
2023-03-28T19:06:46.459Z,6.29
2023-03-28T19:09:14.302Z,6.16
2023-03-28T19:11:43.362Z,6.06
2023-03-28T19:14:11.309Z,5.99
2023-03-28T19:16:39.018Z,5.97
2023-03-28T19:19:06.733Z,5.95
2023-03-28T19:21:34.796Z,5.80
2023-03-28T19:24:02.461Z,5.61
2023-03-28T19:26:30.246Z,5.43
2023-03-28T19:28:59.603Z,5.28
2023-03-28T19:31:27.418Z,5.19
2023-03-28T19:33:55.360Z,5.10
2023-03-28T19:36:23.097Z,5.14
2023-03-28T19:38:50.906Z,5.14
2023-03-28T19:41:20.488Z,5.21
2023-03-28T19:43:49.028Z,5.22
2023-03-28T19:46:23.070Z,5.32
2023-03-28T19:48:53.779Z,5.39
2023-03-28T19:51:21.509Z,5.43
2023-03-28T19:53:49.185Z,5.41
2023-03-28T19:56:18.968Z,5.46
2023-03-28T19:58:46.869Z,5.46
2023-03-28T20:01:14.864Z,5.46
2023-03-28T20:03:43.875Z,5.45
2023-03-28T20:06:14.160Z,5.47
2023-03-28T20:08:42.666Z,5.51
2023-03-28T20:11:12.077Z,5.50
2023-03-28T20:13:40.649Z,5.52
2023-03-28T20:16:11.008Z,5.59
2023-03-28T20:18:39.328Z,5.59
2023-03-28T20:21:10.918Z,5.48
2023-03-28T20:23:38.793Z,5.33
2023-03-28T20:26:15.480Z,5.23
2023-03-28T20:28:46.798Z,5.16
2023-03-28T20:31:14.459Z,5.11
2023-03-28T20:33:42.130Z,5.15
2023-03-28T20:36:11.300Z,5.15
2023-03-28T20:38:38.931Z,5.14
2023-03-28T20:41:10.650Z,5.17
2023-03-28T20:43:40.549Z,5.06
2023-03-28T20:46:09.845Z,4.97
2023-03-28T20:48:37.538Z,4.93
2023-03-28T20:51:13.901Z,4.91
2023-03-28T20:53:44.306Z,4.87
2023-03-28T20:56:13.468Z,4.82
2023-03-28T20:58:42.537Z,4.76
2023-03-28T21:01:12.117Z,4.74
2023-03-28T21:03:48.988Z,4.75
2023-03-28T21:06:18.092Z,4.83
2023-03-28T21:08:48.555Z,4.85
2023-03-28T21:11:17.212Z,4.83
2023-03-28T21:13:44.949Z,4.87
2023-03-28T21:16:14.517Z,4.88
2023-03-28T21:18:42.443Z,4.87
2023-03-28T21:21:11.306Z,4.90
2023-03-28T21:23:39.872Z,4.93
2023-03-28T21:26:11.066Z,4.95
2023-03-28T21:28:39.172Z,4.94
2023-03-28T21:31:09.067Z,4.97
2023-03-28T21:33:38.293Z,4.95
2023-03-28T21:36:07.614Z,4.98
2023-03-28T21:38:36.012Z,4.95
2023-03-28T21:41:04.260Z,4.91
2023-03-28T21:43:33.508Z,4.88
2023-03-28T21:46:01.472Z,4.85
2023-03-28T21:48:29.503Z,4.88
2023-03-28T21:50:59.785Z,4.83
2023-03-28T21:53:29.748Z,4.67
2023-03-28T21:55:59.213Z,4.74
2023-03-28T21:58:29.763Z,4.82
2023-03-28T22:00:59.029Z,4.77
2023-03-28T22:03:27.518Z,4.78
2023-03-28T22:05:56.025Z,4.87
2023-03-28T22:08:24.181Z,4.85
2023-03-28T22:10:54.105Z,4.90
2023-03-28T22:13:24.002Z,4.91
2023-03-28T22:15:53.055Z,4.94
2023-03-28T22:18:25.620Z,4.82
2023-03-28T22:20:53.929Z,4.58
2023-03-28T22:23:22.773Z,4.87
2023-03-28T22:25:51.014Z,4.93
2023-03-28T22:28:18.926Z,4.89
2023-03-28T22:30:46.605Z,4.90
2023-03-28T22:33:14.512Z,4.95
2023-03-28T22:35:43.499Z,4.98
2023-03-28T22:38:11.359Z,4.45
2023-03-28T22:40:38.978Z,4.42
2023-03-28T22:43:07.154Z,4.56
2023-03-28T22:45:34.749Z,4.67
2023-03-28T22:48:03.354Z,4.77
2023-03-28T22:50:33.369Z,4.83
2023-03-28T22:53:02.494Z,4.90
2023-03-28T22:55:30.369Z,4.89
2023-03-28T22:57:57.958Z,4.99
2023-03-28T23:00:25.951Z,5.05
2023-03-28T23:02:53.660Z,5.19
2023-03-28T23:05:21.667Z,5.21
2023-03-28T23:07:50.548Z,5.28
2023-03-28T23:10:20.117Z,5.05
2023-03-28T23:12:48.615Z,5.15
2023-03-28T23:15:16.601Z,5.16
2023-03-28T23:17:44.478Z,5.17
2023-03-28T23:20:14.822Z,5.03
2023-03-28T23:22:44.175Z,5.10
2023-03-28T23:25:13.240Z,5.00
2023-03-28T23:27:42.521Z,5.23
2023-03-28T23:30:12.244Z,5.27
2023-03-28T23:32:39.970Z,5.33
2023-03-28T23:35:09.746Z,5.41
2023-03-28T23:37:38.420Z,5.38
2023-03-28T23:40:14.844Z,5.26
2023-03-28T23:42:45.197Z,5.35
2023-03-28T23:45:15.228Z,5.23
2023-03-28T23:47:43.681Z,5.07
2023-03-28T23:50:12.311Z,4.99
2023-03-28T23:52:40.280Z,5.37
2023-03-28T23:55:09.261Z,5.35
2023-03-28T23:57:37.114Z,5.20
